Latest Weather Observations for Bankstown

IDN60901

Issued at 8:55 pm EDT Saturday 29 November 2014 (issued every 10 minutes, with the page automatically refreshed every 10 minutes)

About weather observations | Map of Sydney area stations | Latest observations for Sydney area | Other Formats
Station Details ID: 066137 Name: BANKSTOWN AIRPORT AWS Lat: -33.92 Lon: 150.99 Height: 6.5 m
Data from the previous 72 hours. | See also: Recent months at Bankstown
Date/Time
EDT
Tmp

°C
App
Tmp
°C
Dew
Point
°C
Rel
Hum
%
Delta-T

°C
Wind Press
QNH
hPa
Press
MSL
hPa
Rain
since
9 am
mm
Dir
 
Spd
km/h
Gust
km/h
Spd
kts
Gust
kts
29/08:30pm 22.7 21.7 13.5 56 5.3 NNE 11 20 6 11 1014.2 1014.2 0.0
29/08:00pm 23.3 20.6 12.9 52 6.0 NE 19 24 10 13 1013.8 1013.8 0.0
29/07:30pm 24.1 21.2 12.4 48 6.7 NE 19 28 10 15 1013.4 1013.4 0.0
29/07:00pm 24.9 23.4 13.1 48 6.9 NE 13 19 7 10 1013.5 1013.5 0.0
29/06:30pm 25.3 23.2 13.5 48 6.9 ENE 17 24 9 13 1013.6 1013.6 0.0
29/06:00pm 25.6 23.0 13.1 46 7.3 NE 19 28 10 15 1013.3 1013.3 0.0
29/05:30pm 25.6 22.2 13.8 48 7.0 ENE 24 35 13 19 1013.2 1013.2 0.0
29/05:00pm 25.9 23.2 13.4 46 7.3 NE 20 32 11 17 1013.2 1013.2 0.0
29/04:30pm 26.5 23.5 13.6 45 7.6 ENE 22 33 12 18 1013.5 1013.5 0.0
29/04:00pm 26.3 22.1 12.4 42 8.0 ENE 26 35 14 19 1013.8 1013.8 0.0
29/03:30pm 26.1 22.7 12.5 42 7.9 ENE 22 32 12 17 1014.1 1014.1 0.0
29/03:00pm 27.0 22.9 12.6 41 8.4 E 26 33 14 18 1014.4 1014.4 0.0
29/02:30pm 27.8 24.6 13.0 40 8.7 ENE 22 30 12 16 1014.6 1014.6 0.0
29/02:00pm 27.7 24.1 12.9 40 8.7 E 24 30 13 16 1014.9 1014.9 0.0
29/01:30pm 27.7 24.8 10.9 35 9.5 E 17 20 9 11 1015.4 1015.4 0.0
29/01:00pm 28.3 26.9 12.2 37 9.3 E 11 24 6 13 1016.0 1016.0 0.0
29/12:30pm 27.2 25.5 11.2 36 9.1 NE 11 24 6 13 1016.6 1016.6 0.0
29/12:00pm 26.9 24.3 10.6 36 9.2 NE 15 22 8 12 1017.1 1017.1 0.0
29/11:30am 26.0 23.0 10.6 38 8.6 NE 17 22 9 12 1017.5 1017.5 0.0
29/11:00am 25.3 23.3 11.5 42 7.8 NNE 13 24 7 13 1018.1 1018.1 0.0
29/10:30am 24.4 24.4 12.4 47 6.9 N 4 13 2 7 1018.6 1018.6 0.0
29/10:00am 23.4 22.8 12.4 50 6.3 N 7 13 4 7 1019.1 1019.1 0.0
29/09:30am 22.0 20.9 13.1 57 5.1 WNW 11 17 6 9 1019.4 1019.4 0.0
29/09:00am 21.1 20.3 13.0 60 4.6 NNW 9 15 5 8 1019.8 1019.8 0.0
29/08:30am 21.0 20.9 13.4 62 4.4 S 6 9 3 5 1019.9 1019.9 0.0
29/08:00am 19.4 19.0 12.4 64 3.9 SW 6 9 3 5 1020.0 1020.0 0.0
29/07:30am 18.2 18.0 13.1 72 2.9 WNW 6 9 3 5 1019.9 1019.9 0.0
29/07:00am 16.2 15.9 12.6 79 2.0 NNE 6 6 3 3 1019.7 1019.7 0.0
29/06:30am 14.8 14.5 12.7 87 1.2 NE 6 7 3 4 1019.4 1019.4 0.0
29/06:00am 13.8 14.3 11.7 87 1.1 CALM 0 0 0 0 1019.4 1019.4 0.0
29/05:30am 14.2 14.9 12.2 88 1.1 CALM 0 0 0 0 1019.3 1019.3 0.0
29/05:00am 13.9 14.5 11.9 88 1.1 CALM 0 0 0 0 1019.3 1019.3 0.0
29/04:30am 13.8 14.4 11.8 88 1.1 CALM 0 0 0 0 1019.1 1019.1 0.0
29/04:00am 13.5 13.9 11.2 86 1.2 CALM 0 0 0 0 1019.2 1019.2 0.0
29/03:30am 14.3 14.8 11.6 84 1.4 CALM 0 0 0 0 1019.2 1019.2 0.0
29/03:00am 14.5 15.1 12.0 85 1.3 CALM 0 0 0 0 1019.4 1019.4 0.0
29/02:30am 14.2 14.7 11.7 85 1.3 CALM 0 0 0 0 1019.6 1019.6 0.0
29/02:00am 14.3 14.8 11.6 84 1.4 CALM 0 7 0 4 1019.7 1019.7 0.0
29/01:30am 14.9 15.7 12.4 85 1.4 CALM 0 0 0 0 1020.1 1020.1 0.0
29/01:00am 15.1 15.6 11.7 80 1.8 CALM 0 0 0 0 1020.4 1020.4 0.0
29/12:30am 16.1 16.8 12.1 77 2.2 CALM 0 0 0 0 1020.7 1020.7 0.0
29/12:00am 16.3 16.8 11.7 74 2.5 CALM 0 0 0 0 1020.9 1020.9 0.0
 
Date/Time
EDT
Tmp

°C
App
Tmp
°C
Dew
Point
°C
Rel
Hum
%
Delta-T

°C
Wind Press
QNH
hPa
Press
MSL
hPa
Rain
since
9 am
mm
Dir
 
Spd
km/h
Gust
km/h
Spd
kts
Gust
kts
28/11:30pm 16.7 17.2 11.6 72 2.8 CALM 0 0 0 0 1021.0 1021.0 0.0
28/11:00pm 17.2 17.9 12.3 73 2.7 CALM 0 0 0 0 1021.0 1021.0 0.0
28/10:30pm 17.6 17.9 10.9 65 3.6 CALM 0 0 0 0 1021.0 1021.0 0.0
28/10:00pm 18.9 18.0 11.2 61 4.2 NE 7 9 4 5 1020.9 1020.9 0.0
28/09:30pm 19.1 17.8 11.2 60 4.3 NE 9 11 5 6 1020.9 1020.9 0.0
28/09:00pm 19.3 17.2 11.1 59 4.5 NE 13 19 7 10 1020.6 1020.6 0.0
28/08:30pm 19.5 17.7 11.0 58 4.6 NE 11 19 6 10 1020.3 1020.3 0.0
28/08:00pm 19.8 17.2 10.8 56 4.9 NE 15 22 8 12 1020.3 1020.3 0.0
28/07:30pm 20.6 17.3 11.0 54 5.3 ENE 19 26 10 14 1020.3 1020.3 0.0
28/07:00pm 21.1 18.4 10.3 50 5.8 NE 15 24 8 13 1020.2 1020.2 0.0
28/06:30pm 21.7 17.7 10.5 49 6.1 ENE 22 32 12 17 1019.8 1019.8 0.0
28/06:00pm 21.9 18.2 10.1 47 6.4 ENE 20 28 11 15 1019.8 1019.8 0.0
28/05:30pm 22.4 17.9 10.2 46 6.7 E 24 35 13 19 1019.7 1019.7 0.0
28/05:00pm 22.1 18.3 9.9 46 6.6 ENE 20 30 11 16 1019.8 1019.8 0.0
28/04:30pm 23.6 20.4 9.9 42 7.5 NE 17 26 9 14 1020.0 1020.0 0.0
28/04:00pm 23.7 20.5 10.0 42 7.5 NE 17 28 9 15 1020.2 1020.2 0.0
28/03:30pm 22.5 18.9 8.2 40 7.5 ENE 17 24 9 13 1020.6 1020.6 0.0
28/03:00pm 23.5 19.6 8.8 39 7.8 E 19 32 10 17 1020.7 1020.7 0.0
28/02:30pm 23.0 19.0 8.3 39 7.8 E 19 28 10 15 1021.2 1021.2 0.0
28/02:00pm 23.2 19.1 8.5 39 7.8 E 20 33 11 18 1021.5 1021.5 0.0
28/01:30pm 22.6 18.4 8.3 40 7.5 E 20 28 11 15 1021.9 1021.9 0.0
28/01:00pm 22.1 17.9 8.2 41 7.3 E 20 24 11 13 1022.5 1022.5 0.0
28/12:30pm 22.3 19.1 8.4 41 7.3 E 15 20 8 11 1022.8 1022.8 0.0
28/12:00pm 22.0 18.5 8.9 43 6.9 SE 17 26 9 14 1023.2 1023.2 0.0
28/11:30am 22.4 19.3 8.9 42 7.2 E 15 22 8 12 1023.4 1023.4 0.0
28/11:00am 22.1 18.9 8.6 42 7.1 ESE 15 22 8 12 1023.6 1023.6 0.0
28/10:30am 22.2 19.3 8.0 40 7.4 E 13 19 7 10 1023.6 1023.6 0.0
28/10:00am 20.6 17.4 6.9 41 6.9 SE 13 20 7 11 1023.7 1023.7 0.0
28/09:30am 21.6 18.6 9.2 45 6.6 ESE 15 24 8 13 1023.8 1023.8 0.0
28/09:00am 20.2 18.7 9.2 49 5.8 SE 7 15 4 8 1024.1 1024.1 0.2
28/08:30am 19.6 18.7 10.6 56 4.9 S 6 9 3 5 1024.0 1024.0 0.2
28/08:00am 17.9 17.4 12.1 69 3.2 S 6 7 3 4 1023.8 1023.8 0.2
28/07:30am 16.5 16.3 13.0 80 1.9 WSW 6 7 3 4 1023.6 1023.6 0.2
28/07:00am 15.2 15.7 12.7 85 1.4 WSW 2 7 1 4 1023.3 1023.3 0.2
28/06:30am 14.4 14.8 12.6 89 1.0 S 2 7 1 4 1023.0 1023.0 0.2
28/06:00am 13.2 13.6 11.4 89 0.9 CALM 0 0 0 0 1022.8 1022.8 0.2
28/05:30am 13.0 13.4 11.1 88 1.0 CALM 0 0 0 0 1022.6 1022.6 0.2
28/05:00am 13.6 14.1 11.5 87 1.1 CALM 0 0 0 0 1022.4 1022.4 0.2
28/04:30am 14.0 14.6 11.9 87 1.1 CALM 0 0 0 0 1022.4 1022.4 0.2
28/04:00am 14.4 14.0 12.3 87 1.1 S 6 7 3 4 1022.5 1022.5 0.2
28/03:30am 14.7 15.5 12.6 87 1.1 CALM 0 0 0 0 1022.5 1022.5 0.2
28/03:00am 14.6 15.4 12.5 87 1.1 CALM 0 0 0 0 1022.5 1022.5 0.2
28/02:30am 14.7 15.4 12.2 85 1.4 CALM 0 0 0 0 1022.7 1022.7 0.2
28/02:00am 15.1 15.2 12.6 85 1.4 S 4 6 2 3 1022.9 1022.9 0.2
28/01:30am 15.4 14.9 12.5 83 1.6 S 7 7 4 4 1023.0 1023.0 0.2
28/01:00am 16.5 17.6 13.6 83 1.6 CALM 0 0 0 0 1023.4 1023.4 0.2
28/12:30am 17.4 18.6 13.7 79 2.1 CALM 0 0 0 0 1023.6 1023.6 0.2
28/12:00am 17.6 17.7 13.9 79 2.1 SE 6 9 3 5 1023.9 1023.9 0.2
 
Date/Time
EDT
Tmp

°C
App
Tmp
°C
Dew
Point
°C
Rel
Hum
%
Delta-T

°C
Wind Press
QNH
hPa
Press
MSL
hPa
Rain
since
9 am
mm
Dir
 
Spd
km/h
Gust
km/h
Spd
kts
Gust
kts
27/11:30pm 18.5 18.1 13.1 71 3.0 ESE 7 15 4 8 1024.2 1024.2 0.0
27/11:00pm 18.7 17.4 12.5 67 3.4 SE 11 13 6 7 1024.3 1024.3 0.0
27/10:30pm 18.7 17.8 12.5 67 3.5 SSE 9 13 5 7 1024.4 1024.4 0.0
27/10:00pm 19.0 17.2 12.0 64 3.9 ESE 13 17 7 9 1024.4 1024.4 0.0
27/09:30pm 18.9 17.9 12.2 65 3.7 E 9 17 5 9 1024.2 1024.2 0.0
27/09:00pm 19.0 17.3 12.5 66 3.6 ESE 13 19 7 10 1024.0 1024.0 0.0
27/08:30pm 19.0 17.3 12.5 66 3.6 SE 13 17 7 9 1023.7 1023.7 0.0
27/08:00pm 18.7 17.4 12.5 67 3.4 SSE 11 15 6 8 1023.4 1023.4 0.0
27/07:30pm 18.7 16.5 12.2 66 3.6 SE 15 19 8 10 1023.3 1023.3 0.0
27/07:00pm 18.6 15.8 12.6 68 3.3 SSE 19 22 10 12 1023.1 1023.1 0.0
27/06:30pm 18.8 15.3 12.3 66 3.6 SE 22 30 12 16 1022.8 1022.8 0.0
27/06:00pm 19.5 16.1 12.5 64 3.9 SE 22 28 12 15 1022.4 1022.4 0.0
27/05:30pm 19.9 15.6 12.2 61 4.3 ESE 26 30 14 16 1022.3 1022.3 0.0
27/05:00pm 19.8 16.3 12.1 61 4.3 ESE 22 28 12 15 1022.3 1022.3 0.0
27/04:40pm 19.9 15.2 11.9 60 4.4 SE 28 50 15 27 1022.4 1022.4 0.0
27/04:30pm 20.0 17.1 13.0 64 4.0 SE 20 28 11 15 1022.4 1022.4 0.0
27/04:00pm 20.1 17.0 12.3 61 4.4 SSE 20 24 11 13 1022.4 1022.4 0.0
27/03:30pm 19.7 16.2 12.2 62 4.2 SE 22 32 12 17 1022.5 1022.5 0.0
27/03:00pm 20.7 17.6 12.1 58 4.8 ESE 20 28 11 15 1022.5 1022.5 0.0
27/02:30pm 20.4 17.0 12.6 61 4.4 SE 22 30 12 16 1022.5 1022.5 0.0
27/02:00pm 19.5 16.7 13.2 67 3.6 SSE 20 26 11 14 1022.6 1022.6 0.0
27/01:30pm 19.2 15.5 12.7 66 3.6 SSE 24 30 13 16 1022.6 1022.6 0.0
27/01:00pm 19.4 16.1 12.7 65 3.8 SSE 22 28 12 15 1022.6 1022.6 0.0
27/12:30pm 19.8 16.6 13.0 65 3.9 SE 22 30 12 16 1022.7 1022.7 0.0
27/12:00pm 19.6 16.3 12.8 65 3.8 SE 22 28 12 15 1022.7 1022.7 0.0
27/11:30am 19.3 15.7 13.2 68 3.5 ESE 24 30 13 16 1022.7 1022.7 0.0
27/11:00am 18.4 15.6 14.3 77 2.4 SE 22 32 12 17 1022.7 1022.7 0.0
27/10:30am 18.4 14.6 13.7 74 2.7 SSE 26 33 14 18 1022.6 1022.6 0.0
27/10:00am 19.6 16.4 13.1 66 3.7 SE 22 30 12 16 1022.5 1022.5 0.0
27/09:30am 19.4 15.7 13.8 70 3.2 SE 26 35 14 19 1022.1 1022.1 0.0
27/09:00am 18.3 16.0 14.2 77 2.3 SE 19 20 10 11 1022.4 1022.4 2.6
27/08:30am 17.9 16.8 14.4 80 2.0 S 13 19 7 10 1022.2 1022.2 2.6
27/08:00am 17.9 15.8 14.8 82 1.8 SSE 19 26 10 14 1021.7 1021.7 2.6
27/07:30am 17.4 15.3 14.7 84 1.6 SSE 19 24 10 13 1021.4 1021.4 2.6
27/07:02am 17.6 15.5 15.2 86 1.4 SE 20 24 11 13 1021.1 1021.1 2.6
27/07:00am 17.6 15.7 15.2 86 1.4 SSE 19 24 10 13 1021.1 1021.1 2.6
27/06:38am 17.3 15.1 14.8 85 1.4 SSE 20 28 11 15 1020.8 1020.8 1.6
27/06:30am 17.8 15.3 15.2 85 1.5 SSE 22 28 12 15 1020.6 1020.6 1.2
27/06:00am 18.4 16.1 15.6 84 1.6 SE 22 30 12 16 1020.1 1020.1 0.8
27/05:30am 18.7 17.1 15.9 84 1.7 SE 19 24 10 13 1019.6 1019.6 0.4
27/05:05am 18.8 16.6 16.0 84 1.7 SE 22 30 12 16 1019.2 1019.2 0.2
27/05:00am 18.8 16.6 16.0 84 1.7 SE 22 30 12 16 1019.1 1019.1 0.2
27/04:30am 19.6 18.2 16.6 83 1.8 ESE 19 24 10 13 1018.7 1018.7 0.0
27/04:28am 19.5 18.2 16.7 84 1.7 ESE 19 22 10 12 1018.6 1018.6 0.0
27/04:00am 18.7 19.5 16.3 86 1.4 S 7 13 4 7 1018.4 1018.4 0.0
27/03:30am 18.7 19.5 15.8 83 1.7 S 6 7 3 4 1018.1 1018.1 0.0
27/03:00am 18.9 19.7 15.9 83 1.8 S 6 7 3 4 1018.2 1018.2 0.0
27/02:30am 19.1 20.0 16.0 82 1.8 SSE 6 9 3 5 1018.3 1018.3 0.0
27/02:00am 18.6 19.2 15.3 81 1.9 S 6 7 3 4 1018.5 1018.5 0.0
27/01:30am 19.1 19.6 15.6 80 2.1 S 7 7 4 4 1018.8 1018.8 0.0
27/01:00am 19.3 19.4 15.6 79 2.2 S 9 11 5 6 1019.0 1019.0 0.0
27/12:30am 20.0 20.6 15.8 77 2.5 S 7 9 4 5 1019.1 1019.1 0.0
27/12:00am 20.2 20.9 16.0 77 2.5 S 7 11 4 6 1019.2 1019.2 0.0
 
Date/Time
EDT
Tmp

°C
App
Tmp
°C
Dew
Point
°C
Rel
Hum
%
Delta-T

°C
Wind Press
QNH
hPa
Press
MSL
hPa
Rain
since
9 am
mm
Dir
 
Spd
km/h
Gust
km/h
Spd
kts
Gust
kts
26/11:30pm 19.9 19.9 15.3 75 2.7 S 9 13 5 7 1019.1 1019.1 0.0
26/11:00pm 21.0 21.4 15.3 70 3.4 E 7 11 4 6 1018.9 1018.9 0.0
26/10:30pm 21.2 21.3 15.5 70 3.4 E 9 17 5 9 1018.9 1018.9 0.0
26/10:00pm 21.4 19.9 15.3 68 3.6 E 17 22 9 12 1018.7 1018.7 0.0
26/09:30pm 21.5 21.1 15.1 67 3.8 ENE 11 17 6 9 1018.7 1018.7 0.0
26/09:00pm 21.5 20.4 15.3 68 3.7 E 15 20 8 11 1018.2 1018.2 0.0

Latest Capital City Observations: Canberra | Sydney | Melbourne | Brisbane | Adelaide | Perth | Hobart | Darwin

Other Formats:

Comma delimited format used in spreadsheet applications
http://www.bom.gov.au/fwo/IDN60901/IDN60901.94765.axf

JavaScript Object Notation format (JSON) in row-major order
http://www.bom.gov.au/fwo/IDN60901/IDN60901.94765.json